Time;durP1;ratioP1;P1;durP2;ratioP2;P2;SDS_P1;SDS_P2;PMS_P1;PMS_P2;Temp;Humidity;BMP_temperature;BMP_pressure;BME280_temperature;BME280_humidity;BME280_pressure;Samples;Min_cycle;Max_cycle;Signal;HPM_P1;HPM_P2
2023/06/11 00:02:07;;;;;;;15.32;10.32;;;17.50;86.00;;;;;;5134431;27;20126;-78
2023/06/11 00:04:34;;;;;;;12.23;9.00;;;17.40;85.90;;;;;;5117176;27;20360;-79
2023/06/11 00:07:02;;;;;;;14.13;9.35;;;17.50;85.80;;;;;;5117519;27;20046;-79
2023/06/11 00:09:28;;;;;;;14.65;9.30;;;17.40;86.10;;;;;;5134110;27;20042;-78
2023/06/11 00:11:54;;;;;;;15.45;8.77;;;17.40;86.20;;;;;;5116927;27;20039;-78
2023/06/11 00:14:22;;;;;;;13.18;8.63;;;17.50;86.20;;;;;;5116773;27;20050;-78
2023/06/11 00:16:48;;;;;;;15.02;10.02;;;17.50;86.20;;;;;;5099722;27;20043;-78
2023/06/11 00:19:14;;;;;;;16.30;8.82;;;17.40;86.10;;;;;;5116586;27;20123;-78
2023/06/11 00:21:43;;;;;;;13.20;9.10;;;17.40;86.20;;;;;;5099709;27;20039;-79
2023/06/11 00:24:14;;;;;;;14.05;8.75;;;17.30;86.00;;;;;;5116574;27;20088;-79
2023/06/11 00:26:41;;;;;;;14.05;9.23;;;17.30;86.20;;;;;;5116789;27;20429;-78
2023/06/11 00:29:08;;;;;;;14.45;9.75;;;17.30;86.30;;;;;;5116466;27;20039;-78
2023/06/11 00:31:33;;;;;;;16.30;9.63;;;17.20;86.30;;;;;;5133646;27;20046;-78
2023/06/11 00:34:02;;;;;;;18.00;9.02;;;17.20;86.40;;;;;;5116437;27;20043;-78
2023/06/11 00:36:29;;;;;;;16.30;10.77;;;17.20;86.50;;;;;;5133420;27;20121;-78
2023/06/11 00:38:55;;;;;;;13.32;9.43;;;17.10;86.40;;;;;;5116434;27;20487;-78
2023/06/11 00:41:24;;;;;;;12.82;9.25;;;17.10;86.60;;;;;;5115310;27;20042;-78
2023/06/11 00:43:54;;;;;;;14.68;10.50;;;17.10;86.60;;;;;;5116180;27;20036;-78
2023/06/11 00:46:21;;;;;;;12.85;10.40;;;17.00;86.70;;;;;;5133388;27;20035;-78
2023/06/11 00:48:51;;;;;;;16.10;11.38;;;17.00;86.80;;;;;;5116243;27;20483;-78
2023/06/11 00:51:17;;;;;;;13.18;9.32;;;17.00;86.80;;;;;;5116079;27;20485;-78
2023/06/11 00:53:43;;;;;;;13.95;10.82;;;17.00;87.00;;;;;;5133025;27;20039;-78
2023/06/11 00:56:11;;;;;;;16.00;10.68;;;17.00;87.00;;;;;;5116268;27;20047;-78
2023/06/11 00:58:37;;;;;;;13.57;10.88;;;17.00;87.00;;;;;;5099364;27;20043;-78
2023/06/11 01:01:05;;;;;;;16.65;11.25;;;17.00;87.00;;;;;;5133111;27;20555;-78
2023/06/11 01:03:33;;;;;;;16.98;11.40;;;17.00;86.90;;;;;;5132878;27;20039;-78
2023/06/11 01:06:06;;;;;;;19.58;11.20;;;17.00;87.00;;;;;;5133085;27;20482;-78
2023/06/11 01:08:38;;;;;;;18.15;10.95;;;17.00;87.00;;;;;;5133125;27;20042;-78
2023/06/11 01:11:08;;;;;;;15.07;10.77;;;17.00;87.10;;;;;;5133007;27;20039;-78
2023/06/11 01:13:38;;;;;;;15.45;10.77;;;17.00;87.10;;;;;;5132961;27;20136;-77
2023/06/11 01:16:11;;;;;;;14.63;11.50;;;17.00;87.10;;;;;;5115614;27;20509;-78
2023/06/11 01:18:53;;;;;;;15.33;11.27;;;17.00;87.00;;;;;;5132758;27;20043;-78
2023/06/11 01:21:24;;;;;;;18.48;10.00;;;17.00;87.10;;;;;;5133169;27;20047;-78
2023/06/11 01:24:09;;;;;;;17.90;11.15;;;17.00;87.20;;;;;;5115607;27;20175;-78
2023/06/11 01:26:43;;;;;;;14.95;10.50;;;17.00;87.30;;;;;;5115667;27;20043;-78
2023/06/11 01:29:10;;;;;;;18.25;11.88;;;17.00;87.30;;;;;;5115778;27;20391;-78
2023/06/11 01:31:40;;;;;;;12.60;9.27;;;17.00;87.10;;;;;;5115699;28;20117;-78
2023/06/11 01:34:08;;;;;;;12.77;10.48;;;17.00;87.10;;;;;;5132626;28;20483;-78
2023/06/11 01:36:36;;;;;;;14.77;11.73;;;17.00;87.20;;;;;;5115503;28;20479;-78
2023/06/11 01:39:04;;;;;;;20.90;10.75;;;17.10;87.10;;;;;;5115460;28;20236;-78
2023/06/11 01:41:30;;;;;;;20.15;12.65;;;17.00;87.20;;;;;;5132658;28;20043;-78
2023/06/11 01:43:55;;;;;;;16.83;11.57;;;17.00;87.10;;;;;;5098614;28;20041;-78
2023/06/11 01:46:22;;;;;;;15.38;9.25;;;17.00;87.30;;;;;;5132441;28;20047;-78
2023/06/11 01:48:47;;;;;;;15.13;10.35;;;17.00;87.20;;;;;;5132548;28;20042;-78
2023/06/11 01:51:14;;;;;;;16.65;10.00;;;17.00;87.00;;;;;;5115802;27;20039;-79
2023/06/11 01:53:41;;;;;;;14.45;10.52;;;17.10;87.00;;;;;;5119461;27;20091;-79
2023/06/11 01:56:07;;;;;;;13.00;10.57;;;17.10;87.80;;;;;;5136683;27;20050;-79
2023/06/11 01:58:33;;;;;;;14.52;11.02;;;17.20;87.20;;;;;;5119473;27;20047;-78
2023/06/11 02:00:59;;;;;;;14.00;11.18;;;17.20;87.20;;;;;;5102428;27;20042;-78
2023/06/11 02:03:25;;;;;;;16.83;11.10;;;17.20;87.00;;;;;;5119344;27;20076;-79
2023/06/11 02:05:52;;;;;;;12.93;10.70;;;17.20;87.30;;;;;;5136501;27;20031;-79
2023/06/11 02:08:17;;;;;;;13.95;11.07;;;17.30;87.10;;;;;;5102371;27;20039;-79
2023/06/11 02:10:44;;;;;;;12.43;10.73;;;17.30;86.90;;;;;;5136698;27;20084;-79
2023/06/11 02:13:09;;;;;;;17.23;10.63;;;17.30;86.70;;;;;;5119180;27;20087;-79
2023/06/11 02:15:36;;;;;;;19.20;11.90;;;17.30;86.60;;;;;;5136143;27;20035;-79
2023/06/11 02:18:01;;;;;;;13.63;11.13;;;17.20;86.40;;;;;;5136081;27;20059;-79
2023/06/11 02:20:27;;;;;;;14.73;11.00;;;17.20;86.60;;;;;;5119415;27;20487;-79
2023/06/11 02:22:53;;;;;;;15.82;11.25;;;17.20;86.40;;;;;;5119014;27;20479;-79
2023/06/11 02:25:19;;;;;;;13.50;10.32;;;17.30;86.30;;;;;;5118984;27;20042;-79
2023/06/11 02:27:46;;;;;;;15.10;11.60;;;17.20;86.20;;;;;;5135994;27;20047;-80
2023/06/11 02:30:12;;;;;;;12.48;10.98;;;17.30;86.10;;;;;;5135967;27;20096;-79
2023/06/11 02:32:39;;;;;;;16.40;11.25;;;17.20;86.10;;;;;;5136018;27;20039;-79
2023/06/11 02:35:06;;;;;;;15.70;10.50;;;17.20;86.10;;;;;;5102271;27;20039;-79
2023/06/11 02:37:31;;;;;;;12.77;11.35;;;17.20;85.90;;;;;;5101575;27;20086;-79
2023/06/11 02:39:57;;;;;;;12.57;11.27;;;17.20;85.80;;;;;;5118959;27;20043;-79
2023/06/11 02:42:23;;;;;;;17.48;12.18;;;17.20;85.70;;;;;;5118902;27;20031;-79
2023/06/11 02:44:48;;;;;;;16.38;12.60;;;17.20;85.60;;;;;;5118710;27;20496;-79
2023/06/11 02:47:14;;;;;;;14.20;12.05;;;17.00;85.60;;;;;;5101565;27;20049;-79
2023/06/11 02:49:40;;;;;;;20.30;13.18;;;17.00;85.70;;;;;;5118452;27;20060;-79
2023/06/11 02:52:06;;;;;;;14.88;12.40;;;17.00;85.70;;;;;;5101401;27;20088;-79
2023/06/11 02:54:32;;;;;;;13.02;11.63;;;16.90;85.80;;;;;;5101465;27;20075;-79
2023/06/11 02:56:57;;;;;;;13.73;11.93;;;16.90;85.70;;;;;;5118273;27;20086;-79
2023/06/11 02:59:23;;;;;;;16.73;12.02;;;16.80;85.70;;;;;;5118289;27;20054;-79
2023/06/11 03:01:49;;;;;;;15.07;11.77;;;16.80;85.70;;;;;;5135039;27;20032;-79
2023/06/11 03:04:15;;;;;;;15.77;11.93;;;16.70;85.90;;;;;;5116654;27;20067;-79
2023/06/11 03:06:40;;;;;;;13.88;11.55;;;16.70;85.80;;;;;;5117693;27;20506;-78
2023/06/11 03:09:06;;;;;;;12.25;10.88;;;16.70;86.10;;;;;;5100629;27;20142;-79
2023/06/11 03:11:31;;;;;;;12.95;11.63;;;16.70;86.10;;;;;;5134716;27;20043;-79
2023/06/11 03:13:57;;;;;;;13.65;10.65;;;16.80;85.80;;;;;;5117665;27;20164;-79
2023/06/11 03:16:23;;;;;;;15.05;12.50;;;16.90;85.50;;;;;;5118032;27;20072;-79
2023/06/11 03:18:48;;;;;;;12.60;11.18;;;16.90;85.80;;;;;;5117751;27;20043;-79
2023/06/11 03:21:14;;;;;;;12.48;11.18;;;16.90;85.60;;;;;;5135113;27;20501;-78
2023/06/11 03:23:40;;;;;;;14.07;12.10;;;16.90;85.50;;;;;;5117837;27;20035;-79
2023/06/11 03:26:06;;;;;;;13.63;11.35;;;17.00;85.20;;;;;;5117857;27;20057;-79
2023/06/11 03:28:31;;;;;;;11.32;9.98;;;17.00;85.30;;;;;;5135200;27;20046;-79
2023/06/11 03:30:57;;;;;;;13.13;11.48;;;17.00;85.10;;;;;;5117762;27;20051;-79
2023/06/11 03:33:23;;;;;;;12.73;10.38;;;17.00;85.00;;;;;;5117587;27;20043;-78
2023/06/11 03:35:48;;;;;;;12.68;11.27;;;17.00;85.00;;;;;;5100635;27;20046;-78
2023/06/11 03:38:14;;;;;;;11.68;10.43;;;17.00;84.90;;;;;;5134621;27;20039;-79
2023/06/11 03:40:40;;;;;;;13.55;9.82;;;17.00;84.70;;;;;;5134586;27;20039;-79
2023/06/11 03:43:05;;;;;;;12.18;10.95;;;17.00;84.70;;;;;;5117530;27;20073;-79
2023/06/11 03:45:31;;;;;;;12.63;10.73;;;17.00;84.60;;;;;;5117458;27;20038;-79
2023/06/11 03:47:57;;;;;;;12.98;11.68;;;17.00;84.50;;;;;;5134524;27;20043;-79
2023/06/11 03:50:23;;;;;;;12.43;11.15;;;17.00;84.30;;;;;;5117272;27;20506;-79
2023/06/11 03:52:49;;;;;;;12.38;10.40;;;17.00;84.30;;;;;;5100628;27;20031;-79
2023/06/11 03:55:15;;;;;;;12.73;11.15;;;17.00;84.30;;;;;;5134301;27;20035;-79
2023/06/11 03:57:41;;;;;;;13.23;11.13;;;17.00;84.20;;;;;;5117406;27;20039;-78
2023/06/11 04:00:08;;;;;;;12.75;10.95;;;17.00;84.10;;;;;;5134321;27;20114;-78
2023/06/11 04:02:34;;;;;;;13.25;11.98;;;17.00;84.10;;;;;;5117299;27;20043;-79
2023/06/11 04:05:01;;;;;;;12.93;10.75;;;17.00;84.00;;;;;;5117210;27;20062;-78
2023/06/11 04:07:27;;;;;;;13.25;12.00;;;17.00;83.90;;;;;;5117010;27;20479;-78
2023/06/11 04:09:53;;;;;;;14.30;11.50;;;17.00;83.90;;;;;;5117122;27;20047;-78
2023/06/11 04:12:18;;;;;;;13.05;11.80;;;17.00;83.90;;;;;;5117173;27;20130;-78
2023/06/11 04:14:44;;;;;;;12.52;11.02;;;17.00;84.00;;;;;;5116695;27;20491;-79
2023/06/11 04:17:10;;;;;;;12.20;11.10;;;17.00;84.00;;;;;;5116636;27;20039;-78
2023/06/11 04:19:36;;;;;;;11.40;10.40;;;17.00;84.00;;;;;;5133697;27;20061;-78
2023/06/11 04:22:03;;;;;;;12.90;11.35;;;17.10;83.70;;;;;;5116913;27;20458;-79
2023/06/11 04:24:28;;;;;;;14.23;12.52;;;17.00;83.70;;;;;;5099686;27;20047;-78
2023/06/11 04:26:56;;;;;;;13.38;11.82;;;17.00;83.90;;;;;;5133733;27;20043;-78
2023/06/11 04:29:23;;;;;;;14.75;11.75;;;17.00;83.80;;;;;;5133714;27;20070;-78
2023/06/11 04:31:50;;;;;;;13.02;11.55;;;17.00;84.00;;;;;;5133629;27;20484;-78
2023/06/11 04:34:20;;;;;;;14.50;11.80;;;17.10;83.90;;;;;;5133548;27;20047;-78
2023/06/11 04:36:47;;;;;;;12.93;11.68;;;17.10;83.80;;;;;;5133453;27;20074;-78
2023/06/11 04:39:13;;;;;;;12.48;11.27;;;17.20;83.90;;;;;;5116733;27;20043;-79
2023/06/11 04:41:39;;;;;;;13.90;12.50;;;17.20;83.90;;;;;;5116314;27;20471;-79
2023/06/11 04:44:05;;;;;;;15.27;12.52;;;17.20;83.50;;;;;;5116417;27;20035;-78
2023/06/11 04:46:34;;;;;;;14.30;11.95;;;17.30;83.50;;;;;;5116306;27;20513;-78
2023/06/11 04:49:00;;;;;;;12.68;11.38;;;17.30;83.40;;;;;;5116916;27;20479;-79
2023/06/11 04:51:32;;;;;;;13.10;11.88;;;17.40;83.50;;;;;;5116425;27;20126;-79
2023/06/11 04:54:01;;;;;;;13.60;12.18;;;17.40;83.40;;;;;;5116060;27;20091;-79
2023/06/11 04:56:27;;;;;;;13.00;11.70;;;17.50;83.20;;;;;;5116756;27;20043;-79
2023/06/11 04:58:53;;;;;;;12.57;11.32;;;17.50;83.10;;;;;;5099062;27;20043;-79
2023/06/11 05:01:19;;;;;;;14.25;12.73;;;17.50;83.00;;;;;;5116030;27;20035;-79
2023/06/11 05:03:45;;;;;;;13.63;12.23;;;17.60;83.00;;;;;;5133305;27;20075;-79
2023/06/11 05:06:13;;;;;;;12.55;11.35;;;17.60;82.80;;;;;;5115962;27;20567;-79
2023/06/11 05:08:39;;;;;;;14.00;12.55;;;17.70;82.60;;;;;;5133207;27;20050;-79
2023/06/11 05:11:04;;;;;;;13.95;12.60;;;17.80;82.30;;;;;;5115926;27;20039;-80
2023/06/11 05:13:30;;;;;;;14.77;13.27;;;17.90;82.00;;;;;;5099087;27;20061;-80
2023/06/11 05:15:57;;;;;;;14.02;12.63;;;17.90;81.80;;;;;;5132841;27;20482;-80
2023/06/11 05:18:25;;;;;;;15.57;11.82;;;17.90;81.60;;;;;;5115531;27;20487;-79
2023/06/11 05:20:51;;;;;;;13.00;11.82;;;18.00;81.60;;;;;;5132909;27;20479;-79
2023/06/11 05:23:18;;;;;;;14.60;13.20;;;18.00;81.20;;;;;;5115672;27;20049;-79
2023/06/11 05:25:47;;;;;;;13.88;12.55;;;18.10;81.10;;;;;;5115599;27;20662;-79
2023/06/11 05:28:14;;;;;;;15.93;11.75;;;18.10;81.10;;;;;;5115827;27;20587;-79
2023/06/11 05:30:43;;;;;;;14.30;12.95;;;18.20;80.90;;;;;;5115708;28;20042;-79
2023/06/11 05:33:09;;;;;;;13.60;11.90;;;18.30;80.70;;;;;;5115528;28;20050;-79
2023/06/11 05:35:35;;;;;;;14.77;12.85;;;18.40;80.60;;;;;;5115462;28;20047;-80
2023/06/11 05:38:03;;;;;;;13.43;12.27;;;18.40;80.40;;;;;;5098490;28;20126;-79
2023/06/11 05:40:30;;;;;;;13.15;11.95;;;18.50;80.30;;;;;;5133194;28;20080;-79
2023/06/11 05:42:56;;;;;;;14.30;12.82;;;18.50;80.20;;;;;;5098792;28;20035;-79
2023/06/11 05:45:21;;;;;;;12.88;11.68;;;18.60;80.20;;;;;;5115611;28;20043;-79
2023/06/11 05:47:47;;;;;;;13.77;12.40;;;18.70;80.00;;;;;;5098501;28;20132;-80
2023/06/11 05:50:13;;;;;;;14.15;12.75;;;18.70;79.80;;;;;;5115702;28;20046;-79
2023/06/11 05:52:39;;;;;;;13.75;12.48;;;18.80;79.80;;;;;;5132795;28;20043;-78
2023/06/11 05:55:06;;;;;;;13.68;12.40;;;18.90;79.80;;;;;;5115768;28;20499;-79
2023/06/11 05:57:31;;;;;;;12.40;11.10;;;18.90;79.40;;;;;;5115239;28;20197;-79
2023/06/11 05:59:57;;;;;;;13.02;11.77;;;19.00;79.40;;;;;;5098650;28;20152;-80
2023/06/11 06:02:23;;;;;;;11.85;10.68;;;19.10;79.30;;;;;;5132671;28;20053;-79
2023/06/11 06:04:49;;;;;;;13.98;12.18;;;19.20;79.10;;;;;;5115186;28;20479;-79
2023/06/11 06:07:18;;;;;;;13.05;11.65;;;19.30;79.10;;;;;;5115554;28;20031;-80
2023/06/11 06:09:44;;;;;;;12.90;11.70;;;19.40;78.50;;;;;;5115639;28;20043;-80
2023/06/11 06:12:10;;;;;;;12.70;11.40;;;19.50;78.30;;;;;;5115964;28;20050;-79
2023/06/11 06:14:36;;;;;;;13.13;11.73;;;19.60;78.30;;;;;;5115797;28;20039;-80
2023/06/11 06:17:02;;;;;;;12.48;11.07;;;19.60;78.00;;;;;;5098951;28;20053;-79
2023/06/11 06:19:27;;;;;;;12.88;11.60;;;19.70;77.90;;;;;;5100106;28;20058;-80
2023/06/11 06:21:53;;;;;;;13.05;11.85;;;19.90;77.60;;;;;;5116187;28;20036;-80
2023/06/11 06:24:19;;;;;;;12.52;11.30;;;19.90;77.10;;;;;;5115434;28;20130;-80
2023/06/11 06:26:44;;;;;;;12.45;11.15;;;20.00;76.80;;;;;;5115466;28;20031;-79
2023/06/11 06:29:12;;;;;;;12.93;11.65;;;20.10;76.70;;;;;;5115205;28;20498;-80
2023/06/11 06:31:40;;;;;;;12.07;10.90;;;20.20;76.10;;;;;;5132155;28;20073;-78
2023/06/11 06:34:07;;;;;;;11.13;10.02;;;20.20;76.00;;;;;;5115536;28;20039;-78
2023/06/11 06:36:33;;;;;;;14.65;10.98;;;20.40;75.40;;;;;;5115000;28;20180;-78
2023/06/11 06:39:00;;;;;;;12.68;11.48;;;20.40;75.00;;;;;;5135174;27;20068;-77
2023/06/11 06:41:26;;;;;;;11.63;10.35;;;20.50;74.90;;;;;;5118610;27;20072;-79
2023/06/11 06:43:52;;;;;;;12.82;11.50;;;20.60;75.10;;;;;;5135920;27;20093;-79
2023/06/11 06:46:18;;;;;;;13.85;10.27;;;20.80;75.00;;;;;;5118633;27;20452;-79
2023/06/11 06:48:43;;;;;;;11.35;10.25;;;20.80;74.40;;;;;;5118818;27;20031;-79
2023/06/11 06:51:09;;;;;;;10.48;9.40;;;20.90;73.70;;;;;;5101834;27;20039;-79
2023/06/11 06:53:35;;;;;;;12.00;10.32;;;20.90;74.20;;;;;;5101627;27;20395;-79
2023/06/11 06:56:01;;;;;;;11.60;10.60;;;20.90;74.00;;;;;;5118519;27;20031;-79
2023/06/11 06:58:27;;;;;;;12.68;10.73;;;21.00;73.50;;;;;;5135529;27;20058;-79
2023/06/11 07:00:54;;;;;;;13.10;11.18;;;21.10;73.70;;;;;;5118631;27;20039;-77
2023/06/11 07:03:21;;;;;;;12.63;11.35;;;21.20;71.90;;;;;;5118458;27;20043;-79
2023/06/11 07:05:49;;;;;;;11.35;10.25;;;21.30;72.90;;;;;;5135633;27;20088;-79
2023/06/11 07:08:15;;;;;;;10.98;10.00;;;21.40;72.50;;;;;;5118696;27;20475;-80
2023/06/11 07:10:42;;;;;;;11.77;10.68;;;21.40;72.50;;;;;;5118404;27;20126;-81
2023/06/11 07:13:11;;;;;;;13.57;11.15;;;21.50;72.40;;;;;;5118257;27;20498;-80
2023/06/11 07:15:37;;;;;;;11.65;10.63;;;21.50;72.10;;;;;;5118000;27;20066;-80
2023/06/11 07:18:02;;;;;;;11.35;10.35;;;21.60;72.10;;;;;;5117684;27;20407;-80
2023/06/11 07:20:28;;;;;;;11.75;10.65;;;21.70;72.10;;;;;;5118054;27;20162;-80
2023/06/11 07:22:54;;;;;;;12.98;11.60;;;21.90;72.20;;;;;;5135366;27;20109;-80
2023/06/11 07:25:19;;;;;;;12.30;11.10;;;22.00;72.00;;;;;;5117827;27;20376;-80
2023/06/11 07:27:45;;;;;;;11.60;10.05;;;22.00;72.00;;;;;;5135298;27;20035;-80
2023/06/11 07:30:11;;;;;;;11.35;9.90;;;22.20;71.70;;;;;;5100786;27;20126;-80
2023/06/11 07:32:37;;;;;;;11.10;10.00;;;22.40;71.70;;;;;;5117721;27;20039;-79
2023/06/11 07:35:04;;;;;;;12.82;11.57;;;22.40;71.20;;;;;;5100609;27;20184;-80
2023/06/11 07:37:30;;;;;;;14.13;11.98;;;22.50;70.50;;;;;;5134760;27;20047;-80
2023/06/11 07:39:56;;;;;;;11.77;10.75;;;22.60;70.00;;;;;;5118089;27;20043;-80
2023/06/11 07:42:22;;;;;;;11.75;10.75;;;22.80;69.80;;;;;;5117440;27;20121;-80
2023/06/11 07:44:48;;;;;;;11.35;10.32;;;22.80;68.90;;;;;;5100649;27;20041;-80
2023/06/11 07:47:13;;;;;;;11.77;10.73;;;22.80;68.50;;;;;;5100553;27;20039;-79
2023/06/11 07:49:39;;;;;;;11.85;10.32;;;22.90;68.60;;;;;;5099925;27;20066;-79
2023/06/11 07:52:05;;;;;;;12.00;10.82;;;23.00;67.90;;;;;;5100528;27;20062;-81
2023/06/11 07:54:31;;;;;;;11.38;10.27;;;23.10;68.40;;;;;;5117812;27;20109;-80
2023/06/11 07:56:56;;;;;;;11.70;10.60;;;23.30;68.20;;;;;;5101340;27;20031;-80
2023/06/11 07:59:22;;;;;;;11.90;10.68;;;23.30;67.90;;;;;;5135158;27;20047;-79
2023/06/11 08:01:48;;;;;;;12.25;11.07;;;23.40;66.50;;;;;;5118195;27;20039;-81
2023/06/11 08:04:14;;;;;;;11.98;10.77;;;23.50;67.40;;;;;;5101495;27;20035;-80
2023/06/11 08:06:39;;;;;;;11.93;10.82;;;23.60;67.20;;;;;;5101290;27;20121;-79
2023/06/11 08:09:05;;;;;;;11.82;10.77;;;23.70;66.80;;;;;;5118800;27;20046;-81
2023/06/11 08:11:31;;;;;;;11.15;10.05;;;23.90;66.90;;;;;;5101363;27;20035;-80
2023/06/11 08:13:57;;;;;;;10.77;9.80;;;24.00;66.80;;;;;;5100455;27;20034;-80
2023/06/11 08:16:22;;;;;;;10.95;9.95;;;24.00;66.30;;;;;;5117542;27;20039;-81
2023/06/11 08:18:48;;;;;;;11.43;10.52;;;24.10;65.80;;;;;;5100080;27;20406;-80
2023/06/11 08:21:14;;;;;;;10.50;9.65;;;24.20;65.60;;;;;;5134686;27;20078;-80
2023/06/11 08:23:40;;;;;;;11.10;10.00;;;24.40;65.70;;;;;;5100056;27;20122;-80
2023/06/11 08:26:06;;;;;;;11.18;9.30;;;24.40;64.40;;;;;;5117037;27;20039;-80
2023/06/11 08:28:32;;;;;;;11.43;9.88;;;24.60;64.90;;;;;;5116871;27;20043;-80
2023/06/11 08:30:57;;;;;;;11.73;10.40;;;24.70;64.20;;;;;;5134969;27;20084;-81
2023/06/11 08:33:23;;;;;;;13.07;10.25;;;24.80;64.10;;;;;;5118774;27;20049;-79
2023/06/11 08:35:49;;;;;;;10.32;9.25;;;24.90;63.80;;;;;;5101239;27;20046;-80
2023/06/11 08:38:15;;;;;;;10.57;9.52;;;25.00;63.90;;;;;;5118274;27;20130;-81
2023/06/11 08:40:41;;;;;;;11.90;10.00;;;25.10;63.20;;;;;;5100331;27;20035;-81
2023/06/11 08:43:08;;;;;;;11.48;10.35;;;25.30;63.20;;;;;;5117055;27;20118;-81
2023/06/11 08:45:34;;;;;;;10.85;9.75;;;25.40;62.90;;;;;;5133397;27;20034;-80
2023/06/11 08:48:02;;;;;;;12.20;10.27;;;25.50;62.40;;;;;;5134573;27;20431;-82
2023/06/11 08:50:29;;;;;;;10.65;9.55;;;25.60;62.40;;;;;;5136018;27;20042;-82
2023/06/11 08:52:56;;;;;;;10.15;9.25;;;25.70;62.40;;;;;;5134332;27;20042;-82
2023/06/11 08:55:22;;;;;;;10.50;9.45;;;25.90;61.90;;;;;;5100366;27;20129;-82
2023/06/11 08:57:53;;;;;;;12.20;9.82;;;25.90;61.00;;;;;;5116411;27;20620;-81
2023/06/11 09:00:19;;;;;;;11.82;9.57;;;25.90;60.60;;;;;;5133896;27;20046;-81
2023/06/11 09:02:45;;;;;;;11.70;9.32;;;26.00;60.30;;;;;;5099183;27;20125;-81
2023/06/11 09:05:11;;;;;;;9.88;8.98;;;26.20;60.40;;;;;;5133374;27;20192;-80
2023/06/11 09:07:37;;;;;;;10.32;9.20;;;26.30;59.70;;;;;;5099058;27;20088;-80
2023/06/11 09:10:07;;;;;;;11.38;9.57;;;26.30;59.90;;;;;;5133238;27;20123;-80
2023/06/11 09:12:33;;;;;;;10.30;9.32;;;26.40;59.80;;;;;;5116204;27;20081;-79
2023/06/11 09:14:59;;;;;;;10.23;9.32;;;26.50;59.60;;;;;;5099128;27;20075;-80
2023/06/11 09:17:36;;;;;;;10.23;9.20;;;26.60;59.10;;;;;;5099082;27;20425;-80
2023/06/11 09:20:05;;;;;;;10.35;9.45;;;26.60;57.60;;;;;;5132970;27;20043;-80
2023/06/11 09:22:32;;;;;;;10.32;9.45;;;26.70;58.80;;;;;;5132872;27;20567;-80
2023/06/11 09:25:02;;;;;;;10.80;9.80;;;26.90;58.10;;;;;;5132832;27;20039;-79
2023/06/11 09:27:28;;;;;;;10.73;9.75;;;26.90;57.60;;;;;;5133083;27;20087;-80
2023/06/11 09:29:53;;;;;;;11.50;9.35;;;27.10;57.70;;;;;;5132779;27;20039;-80
2023/06/11 09:32:19;;;;;;;9.57;8.68;;;27.20;57.30;;;;;;5132716;27;20065;-80
2023/06/11 09:34:46;;;;;;;13.15;9.38;;;27.30;57.00;;;;;;5115537;28;20043;-80
2023/06/11 09:37:14;;;;;;;11.00;9.88;;;27.40;57.40;;;;;;5098471;28;20050;-80
2023/06/11 09:39:42;;;;;;;12.23;9.75;;;27.40;57.00;;;;;;5115729;28;20092;-80
2023/06/11 09:42:31;;;;;;;10.68;9.55;;;27.40;56.90;;;;;;5115603;28;20508;-80
2023/06/11 09:45:01;;;;;;;11.05;10.05;;;27.40;56.60;;;;;;5115135;28;20047;-79
2023/06/11 09:47:37;;;;;;;11.82;10.45;;;27.60;55.90;;;;;;5115675;28;20050;-80
2023/06/11 09:50:02;;;;;;;10.60;9.70;;;27.80;56.10;;;;;;5133010;28;20126;-80
2023/06/11 09:52:29;;;;;;;10.52;9.43;;;27.80;55.50;;;;;;5132535;28;20467;-79
2023/06/11 09:54:55;;;;;;;10.55;9.38;;;27.90;56.20;;;;;;5115736;28;20035;-80
2023/06/11 09:57:22;;;;;;;12.02;10.15;;;28.00;56.00;;;;;;5132672;28;20063;-81
2023/06/11 09:59:48;;;;;;;11.05;10.13;;;28.20;55.70;;;;;;5115809;28;20058;-80
2023/06/11 10:02:14;;;;;;;11.18;10.13;;;28.40;54.60;;;;;;5115390;28;20035;-79
2023/06/11 10:04:40;;;;;;;12.38;9.50;;;28.30;54.40;;;;;;5132541;28;20187;-80
2023/06/11 10:07:07;;;;;;;11.15;10.05;;;28.40;54.70;;;;;;5115618;28;20043;-81
2023/06/11 10:09:34;;;;;;;10.57;9.65;;;28.60;54.80;;;;;;5115360;28;20039;-81
2023/06/11 10:12:00;;;;;;;11.88;9.38;;;28.50;53.60;;;;;;5115688;27;20043;-79
2023/06/11 10:14:26;;;;;;;10.80;9.25;;;28.60;53.80;;;;;;5119559;27;20130;-79
2023/06/11 10:16:54;;;;;;;10.77;9.88;;;28.80;54.30;;;;;;5119350;27;20247;-78
2023/06/11 10:19:22;;;;;;;9.82;8.98;;;28.90;53.80;;;;;;5102151;27;20047;-80
2023/06/11 10:21:52;;;;;;;10.02;9.20;;;29.00;53.40;;;;;;5119218;27;20078;-79
2023/06/11 10:24:28;;;;;;;9.80;8.93;;;29.20;53.70;;;;;;5136051;27;20043;-78
2023/06/11 10:27:09;;;;;;;10.60;9.50;;;29.30;51.70;;;;;;5136953;27;20468;-79
2023/06/11 10:29:51;;;;;;;9.43;8.63;;;29.40;50.30;;;;;;5136096;27;20482;-78
2023/06/11 10:32:22;;;;;;;10.63;9.35;;;29.60;51.50;;;;;;5136021;27;20122;-79
2023/06/11 10:34:56;;;;;;;9.23;8.43;;;29.60;50.00;;;;;;5118925;27;20035;-79
2023/06/11 10:37:28;;;;;;;10.57;9.68;;;29.70;50.30;;;;;;5119084;27;20170;-78
2023/06/11 10:39:54;;;;;;;10.23;9.25;;;29.60;51.10;;;;;;5119083;27;20546;-79
2023/06/11 10:42:44;;;;;;;10.32;9.38;;;29.60;51.00;;;;;;5119304;27;20049;-79
2023/06/11 10:45:13;;;;;;;9.98;9.00;;;29.80;51.70;;;;;;5110931;27;20047;-78
2023/06/11 10:47:46;;;;;;;10.55;9.40;;;30.00;50.80;;;;;;5136204;27;20046;-79
2023/06/11 10:50:14;;;;;;;9.38;8.52;;;30.20;50.40;;;;;;5136322;27;20085;-79
2023/06/11 10:52:56;;;;;;;8.95;8.05;;;30.30;50.60;;;;;;5118863;27;20163;-79
2023/06/11 10:55:23;;;;;;;9.88;8.63;;;30.50;49.00;;;;;;5135594;27;20122;-79
2023/06/11 10:57:53;;;;;;;8.40;7.63;;;30.60;49.30;;;;;;5118794;27;20078;-79
2023/06/11 11:00:19;;;;;;;8.85;8.05;;;30.80;49.50;;;;;;5118644;27;20459;-79
2023/06/11 11:02:46;;;;;;;9.10;8.40;;;31.00;48.90;;;;;;5135624;27;20050;-78
2023/06/11 11:05:12;;;;;;;10.27;9.27;;;31.10;49.20;;;;;;5118366;27;20038;-78
2023/06/11 11:07:38;;;;;;;10.35;9.35;;;31.10;48.00;;;;;;5118528;27;20035;-79
2023/06/11 11:10:06;;;;;;;8.63;7.93;;;31.10;48.30;;;;;;5118640;27;20043;-79
2023/06/11 11:12:50;;;;;;;8.90;8.20;;;31.30;47.60;;;;;;5118358;27;20479;-79
2023/06/11 11:15:16;;;;;;;8.48;7.78;;;31.30;45.80;;;;;;5101207;27;20483;-79
2023/06/11 11:17:43;;;;;;;9.00;8.05;;;31.40;46.50;;;;;;5135322;27;20461;-79
2023/06/11 11:20:11;;;;;;;9.15;8.18;;;31.50;46.30;;;;;;5117830;27;20165;-79
2023/06/11 11:22:38;;;;;;;8.55;7.80;;;31.70;44.60;;;;;;5117899;27;20122;-80
2023/06/11 11:25:05;;;;;;;8.55;7.75;;;31.60;43.30;;;;;;5134078;27;20475;-79
2023/06/11 11:27:32;;;;;;;13.07;8.45;;;31.60;44.50;;;;;;5100890;27;20050;-79
2023/06/11 11:30:00;;;;;;;7.75;7.00;;;31.70;44.40;;;;;;5100673;27;20479;-79
2023/06/11 11:32:34;;;;;;;7.40;6.75;;;31.80;44.50;;;;;;5135138;27;20091;-78
2023/06/11 11:35:01;;;;;;;8.20;7.40;;;32.00;42.60;;;;;;5117694;27;20049;-79
2023/06/11 11:37:30;;;;;;;8.35;7.55;;;32.00;43.20;;;;;;5134870;27;20043;-79
2023/06/11 11:39:56;;;;;;;7.65;7.05;;;32.00;42.30;;;;;;5117808;27;20042;-80
2023/06/11 11:42:25;;;;;;;7.65;7.00;;;32.00;42.80;;;;;;5117861;27;20039;-79
2023/06/11 11:44:53;;;;;;;7.53;6.82;;;31.90;44.00;;;;;;5100631;27;20035;-80
2023/06/11 11:47:21;;;;;;;9.25;7.20;;;32.00;42.30;;;;;;5100957;27;20039;-79
2023/06/11 11:49:56;;;;;;;8.00;7.07;;;32.20;43.90;;;;;;5118655;27;20483;-79
2023/06/11 11:52:23;;;;;;;7.38;6.68;;;32.10;42.70;;;;;;5117964;27;20087;-80
2023/06/11 11:54:49;;;;;;;7.90;7.18;;;32.20;41.90;;;;;;5136492;27;20050;-79
2023/06/11 11:57:22;;;;;;;8.57;6.55;;;32.10;41.70;;;;;;5135892;27;20042;-80
2023/06/11 11:59:53;;;;;;;8.63;7.78;;;32.20;40.80;;;;;;5100401;27;20039;-80
2023/06/11 12:02:24;;;;;;;8.07;7.40;;;32.20;41.20;;;;;;5117157;27;20035;-80
2023/06/11 12:04:50;;;;;;;6.95;6.35;;;32.40;41.50;;;;;;5134355;27;20495;-80
2023/06/11 12:07:17;;;;;;;7.35;6.75;;;32.50;40.50;;;;;;5117361;27;20050;-80
2023/06/11 12:09:43;;;;;;;8.05;7.35;;;32.50;40.80;;;;;;5117342;27;20050;-80
2023/06/11 12:12:10;;;;;;;10.85;6.97;;;32.40;41.00;;;;;;5134478;27;20386;-80
2023/06/11 12:14:37;;;;;;;8.38;6.45;;;32.40;41.20;;;;;;5117176;27;20432;-80
2023/06/11 12:17:04;;;;;;;7.03;6.25;;;32.50;40.40;;;;;;5133921;27;20045;-79
2023/06/11 12:19:31;;;;;;;7.03;6.40;;;32.60;39.90;;;;;;5133805;27;20043;-80
2023/06/11 12:21:56;;;;;;;7.85;6.57;;;32.10;39.80;;;;;;5117308;27;20035;-80
2023/06/11 12:24:23;;;;;;;9.05;6.40;;;31.80;39.70;;;;;;5133767;27;20470;-80
2023/06/11 12:26:51;;;;;;;7.63;6.82;;;31.50;41.40;;;;;;5133939;27;20122;-80
2023/06/11 12:29:17;;;;;;;7.40;6.60;;;31.70;41.90;;;;;;5134136;27;20093;-80
2023/06/11 12:31:45;;;;;;;7.13;6.45;;;32.00;41.50;;;;;;5116600;27;20054;-79
2023/06/11 12:34:14;;;;;;;8.88;5.85;;;32.30;38.60;;;;;;5133586;27;20037;-79